Time;durP1;ratioP1;P1;durP2;ratioP2;P2;SDS_P1;SDS_P2;PMS_P1;PMS_P2;Temp;Humidity;BMP_temperature;BMP_pressure;BME280_temperature;BME280_humidity;BME280_pressure;Samples;Min_cycle;Max_cycle;Signal;HPM_P1;HPM_P2
2021/07/13 00:01:40;;;;;;;8.33;7.60;;;;;;;;;;3607917;39;20413;-75
2021/07/13 00:04:07;;;;;;;9.07;8.23;;;;;;;;;;3618352;39;20406;-75
2021/07/13 00:06:33;;;;;;;9.70;8.73;;;;;;;;;;3617963;39;20390;-76
2021/07/13 00:08:59;;;;;;;8.53;7.80;;;;;;;;;;3607757;39;20827;-75
2021/07/13 00:11:25;;;;;;;8.30;7.50;;;;;;;;;;3618168;39;20428;-76
2021/07/13 00:13:51;;;;;;;9.97;8.97;;;;;;;;;;3603611;39;20797;-76
2021/07/13 00:16:17;;;;;;;8.77;8.07;;;;;;;;;;3619140;39;20424;-75
2021/07/13 00:18:43;;;;;;;8.50;7.67;;;;;;;;;;3608249;39;20408;-75
2021/07/13 00:21:09;;;;;;;8.90;7.40;;;;;;;;;;3612038;39;20955;-76
2021/07/13 00:23:36;;;;;;;14.57;8.77;;;;;;;;;;3603213;39;20504;-76
2021/07/13 00:26:02;;;;;;;12.30;9.07;;;;;;;;;;3618502;39;20399;-76
2021/07/13 00:28:28;;;;;;;11.20;9.40;;;;;;;;;;3618070;39;20394;-76
2021/07/13 00:30:54;;;;;;;12.23;9.33;;;;;;;;;;3618320;39;20416;-76
2021/07/13 00:33:33;;;;;;;10.63;9.17;;;;;;;;;;3618038;39;20466;-76
2021/07/13 00:36:00;;;;;;;10.83;9.93;;;;;;;;;;3602352;39;20420;-76
2021/07/13 00:38:26;;;;;;;10.40;8.90;;;;;;;;;;3608045;39;20405;-76
2021/07/13 00:40:52;;;;;;;10.10;8.97;;;;;;;;;;3608308;39;20425;-76
2021/07/13 00:43:18;;;;;;;11.93;9.20;;;;;;;;;;3609380;39;20884;-76
2021/07/13 00:45:44;;;;;;;10.53;9.63;;;;;;;;;;3608306;39;20475;-76
2021/07/13 00:48:10;;;;;;;10.07;8.90;;;;;;;;;;3607242;39;20408;-76
2021/07/13 00:50:36;;;;;;;11.93;9.57;;;;;;;;;;3608525;39;20837;-76
2021/07/13 00:53:03;;;;;;;9.43;8.40;;;;;;;;;;3608971;39;20440;-76
2021/07/13 00:55:29;;;;;;;10.13;9.03;;;;;;;;;;3617015;39;20457;-76
2021/07/13 00:57:56;;;;;;;9.73;8.37;;;;;;;;;;3607838;39;21207;-75
2021/07/13 01:00:23;;;;;;;9.53;8.70;;;;;;;;;;3618636;39;20550;-76
2021/07/13 01:02:51;;;;;;;9.20;8.40;;;;;;;;;;3618180;39;20409;-76
2021/07/13 01:05:25;;;;;;;10.33;9.33;;;;;;;;;;3635567;22;20477;-80
2021/07/13 01:07:57;;;;;;;10.00;9.00;;;;;;;;;;3603662;39;20509;-80
2021/07/13 01:10:38;;;;;;;10.87;9.10;;;;;;;;;;3619666;39;20410;-80
2021/07/13 01:13:14;;;;;;;9.47;8.53;;;;;;;;;;3618154;39;20417;-80
2021/07/13 01:15:47;;;;;;;8.70;8.00;;;;;;;;;;3619816;39;20409;-80
2021/07/13 01:18:18;;;;;;;10.20;9.30;;;;;;;;;;3603260;39;20417;-81
2021/07/13 01:20:53;;;;;;;9.30;8.40;;;;;;;;;;3620578;39;20394;-80
2021/07/13 01:23:38;;;;;;;9.83;8.93;;;;;;;;;;3620477;39;20385;-80
2021/07/13 01:26:27;;;;;;;10.70;9.73;;;;;;;;;;3619399;39;22264;-80
2021/07/13 01:29:02;;;;;;;10.33;9.27;;;;;;;;;;3618691;39;20712;-80
2021/07/13 01:31:29;;;;;;;8.73;8.00;;;;;;;;;;3626525;39;21460;-79
2021/07/13 01:34:08;;;;;;;10.50;9.63;;;;;;;;;;3605486;39;20406;-80
2021/07/13 01:36:44;;;;;;;17.33;10.57;;;;;;;;;;3602667;39;21258;-80
2021/07/13 01:39:13;;;;;;;11.40;10.30;;;;;;;;;;3619850;39;20402;-80
2021/07/13 01:41:39;;;;;;;10.60;9.50;;;;;;;;;;3601534;39;20414;-81
2021/07/13 01:44:06;;;;;;;10.30;9.40;;;;;;;;;;3601880;39;20410;-81
2021/07/13 01:46:32;;;;;;;11.63;9.37;;;;;;;;;;3610639;39;20417;-80
2021/07/13 01:49:00;;;;;;;13.20;9.50;;;;;;;;;;3618035;39;20402;-80
2021/07/13 01:51:28;;;;;;;10.77;9.67;;;;;;;;;;3612079;39;20424;-80
2021/07/13 01:53:59;;;;;;;10.70;9.80;;;;;;;;;;3610973;39;20393;-80
2021/07/13 01:56:25;;;;;;;11.00;10.10;;;;;;;;;;3604628;39;20454;-80
2021/07/13 01:58:51;;;;;;;10.83;9.93;;;;;;;;;;3621591;39;20393;-80
2021/07/13 02:01:23;;;;;;;11.43;9.80;;;;;;;;;;3621316;39;20421;-80
2021/07/13 02:03:51;;;;;;;10.57;9.67;;;;;;;;;;3621704;39;20389;-80
2021/07/13 02:06:18;;;;;;;10.10;9.20;;;;;;;;;;3614019;39;20416;-80
2021/07/13 02:08:44;;;;;;;12.07;10.87;;;;;;;;;;3596754;39;20413;-81
2021/07/13 02:11:11;;;;;;;11.67;10.57;;;;;;;;;;3605193;39;20458;-80
2021/07/13 02:13:37;;;;;;;10.77;9.73;;;;;;;;;;3604409;39;20397;-80
2021/07/13 02:16:04;;;;;;;10.83;9.70;;;;;;;;;;3612462;39;21677;-79
2021/07/13 02:18:30;;;;;;;11.37;10.33;;;;;;;;;;3596816;39;20401;-80
2021/07/13 02:20:56;;;;;;;11.70;10.60;;;;;;;;;;3623488;39;21091;-80
2021/07/13 02:23:24;;;;;;;12.63;11.33;;;;;;;;;;3621123;39;20393;-80
2021/07/13 02:25:54;;;;;;;12.90;11.70;;;;;;;;;;3621139;39;20393;-80
2021/07/13 02:28:26;;;;;;;12.40;11.30;;;;;;;;;;3620759;39;20404;-82
2021/07/13 02:30:57;;;;;;;15.10;12.10;;;;;;;;;;3621236;39;20401;-80
2021/07/13 02:33:26;;;;;;;17.53;12.43;;;;;;;;;;3613886;39;20393;-80
2021/07/13 02:35:57;;;;;;;13.80;12.50;;;;;;;;;;3612586;39;21100;-80
2021/07/13 02:38:25;;;;;;;12.03;10.90;;;;;;;;;;3603477;39;20458;-80
2021/07/13 02:40:51;;;;;;;17.97;13.97;;;;;;;;;;3605284;39;20401;-80
2021/07/13 02:43:18;;;;;;;13.67;12.47;;;;;;;;;;3610743;39;20417;-80
2021/07/13 02:45:45;;;;;;;17.40;12.90;;;;;;;;;;3597617;39;21534;-80
2021/07/13 02:48:12;;;;;;;14.87;13.37;;;;;;;;;;3592116;39;20425;-79
2021/07/13 02:50:39;;;;;;;13.70;12.40;;;;;;;;;;3613085;39;20473;-80
2021/07/13 02:53:07;;;;;;;15.40;12.80;;;;;;;;;;3612537;39;20409;-80
2021/07/13 02:55:34;;;;;;;13.90;11.80;;;;;;;;;;3596029;39;20402;-80
2021/07/13 02:58:02;;;;;;;14.20;12.90;;;;;;;;;;3612494;39;20424;-80
2021/07/13 03:00:29;;;;;;;15.20;13.70;;;;;;;;;;3602739;39;20412;-80
2021/07/13 03:02:55;;;;;;;16.20;14.70;;;;;;;;;;3612026;39;20429;-80
2021/07/13 03:05:23;;;;;;;13.73;12.53;;;;;;;;;;3607962;39;20421;-82
2021/07/13 03:07:50;;;;;;;15.37;13.77;;;;;;;;;;3619935;39;20507;-80
2021/07/13 03:10:34;;;;;;;14.87;13.43;;;;;;;;;;3609181;39;20421;-79
2021/07/13 03:13:01;;;;;;;16.20;14.60;;;;;;;;;;3619768;39;20404;-80
2021/07/13 03:15:31;;;;;;;15.60;14.00;;;;;;;;;;3618618;39;20409;-80
2021/07/13 03:17:57;;;;;;;15.77;13.00;;;;;;;;;;3619243;39;20400;-79
2021/07/13 03:20:24;;;;;;;16.00;14.50;;;;;;;;;;3621071;39;21123;-79
2021/07/13 03:22:51;;;;;;;16.73;14.83;;;;;;;;;;3621243;39;20402;-80
2021/07/13 03:25:35;;;;;;;16.60;14.43;;;;;;;;;;3613123;39;20420;-80
2021/07/13 03:28:02;;;;;;;16.73;15.13;;;;;;;;;;3609699;39;20405;-80
2021/07/13 03:30:28;;;;;;;20.07;15.40;;;;;;;;;;3620533;39;20433;-80
2021/07/13 03:32:55;;;;;;;14.87;13.30;;;;;;;;;;3603835;39;20427;-80
2021/07/13 03:35:22;;;;;;;16.00;14.37;;;;;;;;;;3621028;39;20390;-80
2021/07/13 03:37:49;;;;;;;16.00;14.50;;;;;;;;;;3617362;39;20408;-80
2021/07/13 03:40:16;;;;;;;14.43;13.13;;;;;;;;;;3609843;39;20829;-80
2021/07/13 03:42:45;;;;;;;16.80;15.23;;;;;;;;;;3611445;39;20464;-81
2021/07/13 03:45:15;;;;;;;14.83;13.17;;;;;;;;;;3621296;39;20420;-79
2021/07/13 03:47:44;;;;;;;15.97;14.43;;;;;;;;;;3609012;39;20410;-80
2021/07/13 03:50:11;;;;;;;14.27;13.00;;;;;;;;;;3618579;39;20857;-80
2021/07/13 03:52:37;;;;;;;15.07;13.60;;;;;;;;;;3619675;39;20398;-80
2021/07/13 03:55:03;;;;;;;15.70;14.20;;;;;;;;;;3616845;39;20445;-80
2021/07/13 03:57:31;;;;;;;13.43;12.13;;;;;;;;;;3603505;39;20835;-80
2021/07/13 03:59:57;;;;;;;14.40;12.93;;;;;;;;;;3612412;39;20545;-80
2021/07/13 04:02:24;;;;;;;18.17;13.33;;;;;;;;;;3611783;39;20785;-80
2021/07/13 04:04:49;;;;;;;14.53;13.23;;;;;;;;;;3602734;39;20451;-80
2021/07/13 04:07:15;;;;;;;13.10;11.90;;;;;;;;;;3626642;39;20405;-80
2021/07/13 04:09:42;;;;;;;16.23;12.97;;;;;;;;;;3608702;39;20428;-80
2021/07/13 04:12:08;;;;;;;15.03;12.40;;;;;;;;;;3618900;39;20417;-80
2021/07/13 04:14:35;;;;;;;12.50;11.30;;;;;;;;;;3618154;39;20410;-80
2021/07/13 04:17:01;;;;;;;18.03;12.37;;;;;;;;;;3617645;39;20411;-80
2021/07/13 04:19:27;;;;;;;13.33;12.03;;;;;;;;;;3618856;39;20441;-80
2021/07/13 04:21:53;;;;;;;14.23;12.50;;;;;;;;;;3618268;39;20402;-80
2021/07/13 04:24:20;;;;;;;14.27;12.77;;;;;;;;;;3619772;39;20398;-80
2021/07/13 04:26:49;;;;;;;12.27;11.17;;;;;;;;;;3608609;39;20881;-80
2021/07/13 04:29:15;;;;;;;12.40;11.23;;;;;;;;;;3610994;39;20826;-80
2021/07/13 04:31:41;;;;;;;12.73;11.43;;;;;;;;;;3611058;39;21461;-79
2021/07/13 04:34:09;;;;;;;13.40;11.90;;;;;;;;;;3601046;39;20418;-80
2021/07/13 04:36:36;;;;;;;12.13;11.10;;;;;;;;;;3619505;39;21879;-79
2021/07/13 04:39:03;;;;;;;11.20;10.10;;;;;;;;;;3617421;39;20548;-79
2021/07/13 04:41:29;;;;;;;13.23;11.87;;;;;;;;;;3618462;39;21110;-80
2021/07/13 04:43:55;;;;;;;12.83;11.63;;;;;;;;;;3618604;39;20798;-79
2021/07/13 04:46:22;;;;;;;12.43;11.33;;;;;;;;;;3609928;39;20409;-79
2021/07/13 04:48:48;;;;;;;15.37;12.90;;;;;;;;;;3610988;39;20436;-78
2021/07/13 04:51:15;;;;;;;12.80;11.60;;;;;;;;;;3609450;39;20370;-80
2021/07/13 04:53:42;;;;;;;13.10;11.70;;;;;;;;;;3619921;39;20938;-80
2021/07/13 04:56:08;;;;;;;13.97;12.80;;;;;;;;;;3618040;39;20397;-80
2021/07/13 04:58:34;;;;;;;13.50;12.20;;;;;;;;;;3604875;39;20425;-80
2021/07/13 05:01:00;;;;;;;15.20;13.70;;;;;;;;;;3598913;39;20397;-80
2021/07/13 05:03:26;;;;;;;13.60;12.17;;;;;;;;;;3618779;39;20414;-80
2021/07/13 05:05:52;;;;;;;13.83;12.50;;;;;;;;;;3619361;39;20437;-80
2021/07/13 05:08:22;;;;;;;11.83;10.50;;;;;;;;;;3600422;39;20429;-80
2021/07/13 05:10:52;;;;;;;13.70;12.37;;;;;;;;;;3607949;39;20443;-81
2021/07/13 05:13:18;;;;;;;13.23;11.90;;;;;;;;;;3609695;39;21190;-81
2021/07/13 05:15:45;;;;;;;14.27;12.87;;;;;;;;;;3608021;39;20822;-81
2021/07/13 05:18:13;;;;;;;15.40;12.43;;;;;;;;;;3615943;39;20998;-81
2021/07/13 05:20:45;;;;;;;18.90;13.30;;;;;;;;;;3605275;39;20402;-81
2021/07/13 05:23:12;;;;;;;14.97;13.47;;;;;;;;;;3618365;39;20413;-81
2021/07/13 05:25:39;;;;;;;15.53;13.70;;;;;;;;;;3618142;39;20484;-81
2021/07/13 05:28:10;;;;;;;15.73;14.13;;;;;;;;;;3610142;39;20413;-81
2021/07/13 05:30:38;;;;;;;14.73;13.23;;;;;;;;;;3601378;39;20447;-79
2021/07/13 05:33:04;;;;;;;15.10;13.60;;;;;;;;;;3621401;39;21221;-79
2021/07/13 05:35:30;;;;;;;15.93;14.43;;;;;;;;;;3611533;39;20406;-80
2021/07/13 05:37:56;;;;;;;14.90;13.50;;;;;;;;;;3605120;39;20409;-80
2021/07/13 05:40:22;;;;;;;18.43;14.60;;;;;;;;;;3621788;39;20467;-78
2021/07/13 05:42:49;;;;;;;16.23;14.63;;;;;;;;;;3599854;39;20409;-79
2021/07/13 05:45:16;;;;;;;15.43;13.97;;;;;;;;;;3618120;39;21260;-79
2021/07/13 05:47:44;;;;;;;16.10;14.40;;;;;;;;;;3609656;39;20398;-79
2021/07/13 05:50:11;;;;;;;15.43;14.03;;;;;;;;;;3599608;39;20398;-79
2021/07/13 05:52:37;;;;;;;17.87;14.77;;;;;;;;;;3595193;39;20398;-79
2021/07/13 05:55:05;;;;;;;14.80;13.30;;;;;;;;;;3619612;39;20394;-79
2021/07/13 05:57:31;;;;;;;13.83;12.47;;;;;;;;;;3608646;39;20420;-79
2021/07/13 05:59:58;;;;;;;15.83;14.17;;;;;;;;;;3599451;39;20474;-79
2021/07/13 06:02:24;;;;;;;16.97;15.33;;;;;;;;;;3608327;39;20406;-78
2021/07/13 06:04:50;;;;;;;16.57;14.97;;;;;;;;;;3609968;39;21628;-79
2021/07/13 06:07:16;;;;;;;16.40;14.80;;;;;;;;;;3592886;39;20430;-78
2021/07/13 06:09:43;;;;;;;15.87;14.37;;;;;;;;;;3607744;39;20469;-79
2021/07/13 06:12:10;;;;;;;19.97;14.67;;;;;;;;;;3616226;39;20420;-81
2021/07/13 06:14:40;;;;;;;13.83;12.63;;;;;;;;;;3618288;39;20409;-79
2021/07/13 06:17:07;;;;;;;14.40;13.00;;;;;;;;;;3602009;39;20416;-80
2021/07/13 06:19:34;;;;;;;16.13;14.53;;;;;;;;;;3619564;39;20468;-79
2021/07/13 06:22:00;;;;;;;15.67;14.27;;;;;;;;;;3594821;39;21231;-79
2021/07/13 06:24:27;;;;;;;16.13;14.43;;;;;;;;;;3607647;39;20517;-79
2021/07/13 06:26:53;;;;;;;16.93;14.80;;;;;;;;;;3609230;39;20421;-79
2021/07/13 06:29:19;;;;;;;15.87;14.17;;;;;;;;;;3593819;39;20860;-79
2021/07/13 06:31:45;;;;;;;15.33;13.90;;;;;;;;;;3609886;39;20463;-80
2021/07/13 06:34:11;;;;;;;16.90;14.53;;;;;;;;;;3596517;39;20404;-80
2021/07/13 06:36:38;;;;;;;17.50;15.50;;;;;;;;;;3619682;39;20418;-81
2021/07/13 06:39:04;;;;;;;17.67;15.90;;;;;;;;;;3602465;39;20461;-80
2021/07/13 06:41:31;;;;;;;18.60;16.57;;;;;;;;;;3609272;39;20414;-81
2021/07/13 06:43:57;;;;;;;18.93;17.00;;;;;;;;;;3608996;39;20473;-81
2021/07/13 06:46:23;;;;;;;18.80;17.03;;;;;;;;;;3610969;39;20849;-81
2021/07/13 06:48:49;;;;;;;21.00;17.07;;;;;;;;;;3602081;39;20402;-81
2021/07/13 06:51:17;;;;;;;20.40;18.40;;;;;;;;;;3603350;39;20444;-82
2021/07/13 06:53:43;;;;;;;19.30;16.33;;;;;;;;;;3604253;39;20410;-82
2021/07/13 06:56:12;;;;;;;22.90;20.23;;;;;;;;;;3603329;39;20430;-83
2021/07/13 06:58:56;;;;;;;24.33;20.43;;;;;;;;;;3613642;39;20440;-84
2021/07/13 07:01:22;;;;;;;23.03;20.70;;;;;;;;;;3609945;39;20425;-83
2021/07/13 07:03:49;;;;;;;25.63;22.20;;;;;;;;;;3616257;39;20504;-84
2021/07/13 07:06:15;;;;;;;25.30;22.60;;;;;;;;;;3620640;39;20397;-84
2021/07/13 07:08:43;;;;;;;28.00;25.10;;;;;;;;;;3603998;39;21019;-84
2021/07/13 07:11:09;;;;;;;32.20;27.87;;;;;;;;;;3615244;39;20405;-84
2021/07/13 07:13:38;;;;;;;32.63;28.63;;;;;;;;;;3619266;39;20476;-84
2021/07/13 07:16:06;;;;;;;34.80;28.40;;;;;;;;;;3612105;39;21552;-84
2021/07/13 07:18:33;;;;;;;36.10;32.17;;;;;;;;;;3626870;39;20386;-84
2021/07/13 07:20:59;;;;;;;41.13;30.87;;;;;;;;;;3627905;39;20397;-85
2021/07/13 07:23:32;;;;;;;41.00;31.23;;;;;;;;;;3630970;39;20413;-85
2021/07/13 07:26:01;;;;;;;48.07;33.10;;;;;;;;;;3629549;39;20474;-85
2021/07/13 07:28:27;;;;;;;38.83;34.10;;;;;;;;;;3625660;39;20430;-85
2021/07/13 07:30:53;;;;;;;37.63;31.27;;;;;;;;;;3623053;39;20398;-84
2021/07/13 07:33:19;;;;;;;38.70;33.20;;;;;;;;;;3606674;39;21237;-84
2021/07/13 07:35:46;;;;;;;41.10;35.70;;;;;;;;;;3623875;39;20410;-85
2021/07/13 07:38:14;;;;;;;38.17;34.07;;;;;;;;;;3623410;39;20474;-84
2021/07/13 07:40:40;;;;;;;39.57;33.07;;;;;;;;;;3612754;39;20413;-84
2021/07/13 07:43:09;;;;;;;37.00;33.20;;;;;;;;;;3602054;39;20540;-82
2021/07/13 07:45:35;;;;;;;42.60;35.87;;;;;;;;;;3615443;39;20774;-84
2021/07/13 07:48:01;;;;;;;52.03;37.40;;;;;;;;;;3608829;39;20405;-84
2021/07/13 07:50:28;;;;;;;44.60;37.10;;;;;;;;;;3601978;39;20390;-84
2021/07/13 07:53:06;;;;;;;43.60;37.60;;;;;;;;;;3618929;39;20446;-83
2021/07/13 07:55:33;;;;;;;46.80;38.80;;;;;;;;;;3618770;39;20528;-84
2021/07/13 07:57:59;;;;;;;48.63;41.83;;;;;;;;;;3606921;39;21052;-83
2021/07/13 08:00:27;;;;;;;48.10;40.17;;;;;;;;;;3617576;39;21287;-83
2021/07/13 08:02:54;;;;;;;50.23;42.60;;;;;;;;;;3618173;39;20405;-82
2021/07/13 08:05:22;;;;;;;55.47;43.53;;;;;;;;;;3607715;39;20429;-85
2021/07/13 08:07:49;;;;;;;50.77;42.60;;;;;;;;;;3600912;39;20385;-83
2021/07/13 08:10:36;;;;;;;52.40;42.17;;;;;;;;;;3599422;39;20437;-83
2021/07/13 08:13:04;;;;;;;51.83;44.70;;;;;;;;;;3612582;39;20436;-83
2021/07/13 08:15:36;;;;;;;53.60;42.37;;;;;;;;;;3624600;39;20424;-83
2021/07/13 08:18:05;;;;;;;51.03;43.83;;;;;;;;;;3617189;39;20479;-84
2021/07/13 08:20:31;;;;;;;49.70;44.13;;;;;;;;;;3599866;39;21391;-84
2021/07/13 08:22:57;;;;;;;49.90;42.77;;;;;;;;;;3607319;39;20406;-84
2021/07/13 08:25:24;;;;;;;57.10;43.40;;;;;;;;;;3612670;39;20465;-84
2021/07/13 08:27:57;;;;;;;57.87;45.23;;;;;;;;;;3612028;39;20484;-83
2021/07/13 08:30:45;;;;;;;46.00;40.97;;;;;;;;;;3619705;39;20896;-84
2021/07/13 08:33:11;;;;;;;54.53;42.90;;;;;;;;;;3623283;39;20471;-84
2021/07/13 08:35:45;;;;;;;49.03;43.63;;;;;;;;;;3619895;39;20418;-83
2021/07/13 08:38:12;;;;;;;52.97;41.07;;;;;;;;;;3610021;39;20448;-83
2021/07/13 08:40:39;;;;;;;47.43;39.53;;;;;;;;;;3592529;39;21558;-84
2021/07/13 08:43:13;;;;;;;57.40;50.27;;;;;;;;;;3602214;39;20448;-83
2021/07/13 08:45:40;;;;;;;51.53;40.17;;;;;;;;;;3624972;39;21758;-83
2021/07/13 08:48:09;;;;;;;45.97;41.07;;;;;;;;;;3620075;39;20453;-83
2021/07/13 08:50:38;;;;;;;48.50;40.83;;;;;;;;;;3620678;39;20438;-84
2021/07/13 08:53:06;;;;;;;50.33;40.90;;;;;;;;;;3618262;39;20835;-84
2021/07/13 08:55:34;;;;;;;46.53;39.20;;;;;;;;;;3621535;39;20448;-83
2021/07/13 08:58:01;;;;;;;45.77;40.80;;;;;;;;;;3609672;39;21135;-85
2021/07/13 09:00:27;;;;;;;43.87;38.57;;;;;;;;;;3611640;39;20402;-84
2021/07/13 09:03:13;;;;;;;44.33;37.97;;;;;;;;;;3609479;39;20433;-84
2021/07/13 09:05:43;;;;;;;45.77;38.33;;;;;;;;;;3617541;39;20444;-84
2021/07/13 09:08:14;;;;;;;46.27;41.27;;;;;;;;;;3617372;39;20473;-85
2021/07/13 09:11:03;;;;;;;42.17;37.50;;;;;;;;;;3614399;39;21178;-84
2021/07/13 09:13:42;;;;;;;44.33;36.60;;;;;;;;;;3575994;39;20432;-84
2021/07/13 09:16:16;;;;;;;40.70;33.80;;;;;;;;;;3586664;39;20448;-83
2021/07/13 09:18:46;;;;;;;40.87;36.37;;;;;;;;;;3571826;39;20396;-83
2021/07/13 09:21:17;;;;;;;41.10;36.63;;;;;;;;;;3559278;39;20455;-83
2021/07/13 09:24:06;;;;;;;37.17;33.30;;;;;;;;;;3574636;39;20453;-83
2021/07/13 09:27:01;;;;;;;39.57;35.27;;;;;;;;;;3576933;39;20495;-83
2021/07/13 09:29:29;;;;;;;35.90;32.10;;;;;;;;;;3575591;39;20487;-83
2021/07/13 09:31:57;;;;;;;37.30;32.60;;;;;;;;;;3581156;39;20416;-83
2021/07/13 09:34:23;;;;;;;36.23;32.43;;;;;;;;;;3582487;39;21264;-83
2021/07/13 09:36:58;;;;;;;51.53;34.00;;;;;;;;;;3565959;40;20422;-82
2021/07/13 09:39:25;;;;;;;33.67;30.27;;;;;;;;;;3582157;39;20416;-83
2021/07/13 09:41:54;;;;;;;34.53;30.37;;;;;;;;;;3574768;39;20419;-83
2021/07/13 09:44:24;;;;;;;32.97;29.10;;;;;;;;;;3584402;39;20467;-83
2021/07/13 09:47:00;;;;;;;31.73;28.40;;;;;;;;;;3568395;39;20486;-85
2021/07/13 09:49:32;;;;;;;60.60;35.43;;;;;;;;;;3574998;39;20407;-83
2021/07/13 09:52:01;;;;;;;36.30;30.10;;;;;;;;;;3606610;39;20855;-83
2021/07/13 09:54:32;;;;;;;29.07;25.93;;;;;;;;;;3614505;39;20429;-82
2021/07/13 09:56:59;;;;;;;28.80;25.83;;;;;;;;;;3611027;39;20440;-82
2021/07/13 09:59:26;;;;;;;29.53;26.43;;;;;;;;;;3607333;39;20451;-82
2021/07/13 10:01:54;;;;;;;28.57;25.87;;;;;;;;;;3604106;39;20417;-82
2021/07/13 10:04:22;;;;;;;26.63;23.83;;;;;;;;;;3614819;39;20425;-82
2021/07/13 10:06:49;;;;;;;27.53;24.70;;;;;;;;;;3613525;39;20441;-83
2021/07/13 10:09:16;;;;;;;25.87;23.47;;;;;;;;;;3602529;39;20456;-83
2021/07/13 10:11:42;;;;;;;27.50;24.60;;;;;;;;;;3612614;39;20930;-83
2021/07/13 10:14:11;;;;;;;26.83;24.23;;;;;;;;;;3619703;39;20419;-82
2021/07/13 10:16:39;;;;;;;27.17;24.57;;;;;;;;;;3606487;39;20409;-83
2021/07/13 10:19:38;;;;;;;26.43;23.63;;;;;;;;;;3617012;39;20462;-82
2021/07/13 10:22:11;;;;;;;25.17;22.60;;;;;;;;;;3608069;39;20671;-81
2021/07/13 10:25:02;;;;;;;24.67;22.30;;;;;;;;;;3601260;39;20413;-82
2021/07/13 10:27:28;;;;;;;26.80;23.43;;;;;;;;;;3586206;39;20431;-83
2021/07/13 10:30:25;;;;;;;25.03;22.30;;;;;;;;;;3580048;39;20427;-82
2021/07/13 10:32:51;;;;;;;22.33;20.13;;;;;;;;;;3557539;40;20833;-83
2021/07/13 10:35:23;;;;;;;23.40;21.13;;;;;;;;;;3564811;40;20414;-82
2021/07/13 10:37:53;;;;;;;20.00;18.20;;;;;;;;;;3556676;40;20414;-82
2021/07/13 10:40:27;;;;;;;20.23;18.43;;;;;;;;;;3555371;40;20413;-82
2021/07/13 10:42:55;;;;;;;20.97;18.83;;;;;;;;;;3563897;40;20690;-82
2021/07/13 10:45:42;;;;;;;20.47;18.57;;;;;;;;;;3559996;40;20415;-82
2021/07/13 10:48:13;;;;;;;18.97;17.27;;;;;;;;;;3564522;40;20426;-82
2021/07/13 10:50:41;;;;;;;18.63;16.97;;;;;;;;;;3555943;40;20838;-82
2021/07/13 10:53:09;;;;;;;17.60;16.00;;;;;;;;;;3561910;40;20796;-81
2021/07/13 10:55:37;;;;;;;20.07;18.00;;;;;;;;;;3548897;40;20419;-81
2021/07/13 10:58:15;;;;;;;17.40;15.80;;;;;;;;;;3575510;39;20439;-82
2021/07/13 11:00:56;;;;;;;18.77;16.97;;;;;;;;;;3594080;39;20447;-81
2021/07/13 11:03:32;;;;;;;19.20;17.40;;;;;;;;;;3584451;39;20417;-81
2021/07/13 11:06:00;;;;;;;18.13;15.47;;;;;;;;;;3586335;39;20422;-81
2021/07/13 11:08:45;;;;;;;20.43;16.73;;;;;;;;;;3570898;39;20432;-82
2021/07/13 11:11:18;;;;;;;17.63;16.13;;;;;;;;;;3592607;39;20398;-82
2021/07/13 11:13:47;;;;;;;14.97;13.80;;;;;;;;;;3598854;39;20457;-81
2021/07/13 11:16:15;;;;;;;16.60;14.53;;;;;;;;;;3597524;39;20437;-81
2021/07/13 11:18:42;;;;;;;21.60;16.10;;;;;;;;;;3602654;39;20409;-82
2021/07/13 11:21:19;;;;;;;50.97;21.33;;;;;;;;;;3590674;39;20485;-82
2021/07/13 11:23:46;;;;;;;48.03;20.47;;;;;;;;;;3602076;39;20417;-82
2021/07/13 11:26:13;;;;;;;18.00;16.30;;;;;;;;;;3590283;39;20398;-81
2021/07/13 11:28:50;;;;;;;16.20;14.70;;;;;;;;;;3599389;39;21563;-81
2021/07/13 11:31:26;;;;;;;14.17;13.03;;;;;;;;;;3600398;39;20798;-80
2021/07/13 11:33:59;;;;;;;13.77;12.67;;;;;;;;;;3603566;39;20771;-81
2021/07/13 11:36:26;;;;;;;16.10;14.70;;;;;;;;;;3596919;39;20419;-81
2021/07/13 11:38:52;;;;;;;13.63;12.23;;;;;;;;;;3603526;39;20486;-81
2021/07/13 11:41:21;;;;;;;15.07;13.77;;;;;;;;;;3594004;39;20402;-82
2021/07/13 11:43:58;;;;;;;16.57;13.07;;;;;;;;;;3593538;39;21167;-81
2021/07/13 11:46:26;;;;;;;14.63;13.33;;;;;;;;;;3601512;39;20428;-81
2021/07/13 11:48:59;;;;;;;15.17;13.93;;;;;;;;;;3612015;39;20842;-81
2021/07/13 11:51:25;;;;;;;55.50;18.30;;;;;;;;;;3595965;39;20403;-81
2021/07/13 11:54:02;;;;;;;17.23;13.20;;;;;;;;;;3595149;39;20471;-81
2021/07/13 11:56:29;;;;;;;14.57;13.13;;;;;;;;;;3602877;39;20401;-81
2021/07/13 11:58:58;;;;;;;17.13;13.60;;;;;;;;;;3586298;39;20725;-81
2021/07/13 12:01:27;;;;;;;45.60;20.20;;;;;;;;;;3603176;39;20511;-82
2021/07/13 12:03:54;;;;;;;19.80;14.90;;;;;;;;;;3598175;39;21633;-82
2021/07/13 12:06:22;;;;;;;14.13;12.90;;;;;;;;;;3609068;39;20460;-82
2021/07/13 12:09:17;;;;;;;15.23;14.00;;;;;;;;;;3614756;39;20461;-80
2021/07/13 12:11:51;;;;;;;17.33;15.63;;;;;;;;;;3600399;39;20424;-81
2021/07/13 12:14:55;;;;;;;16.40;14.70;;;;;;;;;;3603681;39;20406;-81
2021/07/13 12:32:26;;;;;;;16.73;15.20;;;;;;;;;;3556943;40;20477;-81
2021/07/13 12:41:46;;;;;;;13.00;12.00;;;;;;;;;;3509144;40;20407;-80
2021/07/13 12:45:24;;;;;;;12.53;11.57;;;;;;;;;;3512061;40;20494;-81
2021/07/13 12:48:30;;;;;;;16.43;11.90;;;;;;;;;;3464803;41;20450;-80
2021/07/13 13:53:48;;;;;;;22.23;18.20;;;;;;;;;;3524342;40;20402;-79
2021/07/13 14:06:16;;;;;;;21.23;19.27;;;;;;;;;;3612533;39;20512;-79
2021/07/13 14:08:44;;;;;;;23.17;21.10;;;;;;;;;;3608571;39;20822;-80
2021/07/13 14:11:11;;;;;;;25.83;22.67;;;;;;;;;;3603866;39;21005;-80
2021/07/13 14:13:38;;;;;;;22.00;19.70;;;;;;;;;;3612671;39;20459;-79
2021/07/13 14:16:07;;;;;;;22.50;20.40;;;;;;;;;;3614878;39;20810;-80
2021/07/13 14:18:33;;;;;;;24.80;21.70;;;;;;;;;;3605976;39;20756;-79
2021/07/13 14:21:00;;;;;;;24.57;22.07;;;;;;;;;;3621768;39;20794;-80
2021/07/13 14:23:27;;;;;;;23.77;21.27;;;;;;;;;;3605888;39;22387;-79
2021/07/13 14:25:53;;;;;;;23.73;21.37;;;;;;;;;;3615758;39;20503;-79
2021/07/13 14:28:19;;;;;;;23.63;21.40;;;;;;;;;;3605526;39;20424;-79
2021/07/13 14:30:46;;;;;;;23.93;21.53;;;;;;;;;;3613741;39;20393;-78
2021/07/13 14:33:12;;;;;;;26.43;23.63;;;;;;;;;;3601673;39;20432;-78
2021/07/13 14:35:39;;;;;;;25.50;22.80;;;;;;;;;;3622087;39;20473;-79
2021/07/13 14:38:05;;;;;;;24.77;22.47;;;;;;;;;;3622247;39;20812;-78
2021/07/13 14:40:33;;;;;;;22.87;20.53;;;;;;;;;;3611731;39;20390;-78
2021/07/13 14:43:01;;;;;;;20.50;18.57;;;;;;;;;;3614743;39;20409;-79
2021/07/13 14:45:27;;;;;;;23.30;21.10;;;;;;;;;;3612479;39;20406;-78
2021/07/13 14:47:53;;;;;;;24.03;21.73;;;;;;;;;;3604951;39;20494;-78
2021/07/13 14:50:19;;;;;;;24.57;22.27;;;;;;;;;;3611397;39;20386;-78
2021/07/13 14:52:46;;;;;;;26.53;24.20;;;;;;;;;;3615124;39;20406;-78
2021/07/13 14:55:12;;;;;;;24.70;21.47;;;;;;;;;;3613914;39;20825;-78
2021/07/13 14:57:38;;;;;;;25.00;22.63;;;;;;;;;;3622086;39;20468;-79
2021/07/13 15:00:05;;;;;;;25.20;22.80;;;;;;;;;;3613080;39;20979;-78
2021/07/13 15:02:31;;;;;;;25.27;22.77;;;;;;;;;;3612902;39;20394;-78
2021/07/13 15:04:59;;;;;;;25.27;22.90;;;;;;;;;;3622529;39;20434;-78
2021/07/13 15:07:25;;;;;;;27.93;25.33;;;;;;;;;;3615406;39;20496;-79
2021/07/13 15:09:51;;;;;;;25.40;22.77;;;;;;;;;;3595024;39;20410;-79
2021/07/13 15:12:17;;;;;;;26.43;23.27;;;;;;;;;;3610867;39;21292;-78
2021/07/13 15:14:43;;;;;;;26.87;24.33;;;;;;;;;;3618885;39;20770;-78
2021/07/13 15:17:10;;;;;;;25.13;22.90;;;;;;;;;;3601466;39;20468;-79
2021/07/13 15:19:36;;;;;;;25.27;22.83;;;;;;;;;;3612797;39;20481;-78
2021/07/13 15:22:02;;;;;;;25.73;23.53;;;;;;;;;;3606499;39;20418;-79
2021/07/13 15:24:31;;;;;;;26.47;24.07;;;;;;;;;;3612050;39;21283;-78
2021/07/13 15:26:59;;;;;;;24.53;22.27;;;;;;;;;;3612303;39;20425;-79
2021/07/13 15:29:26;;;;;;;26.40;22.70;;;;;;;;;;3610409;39;20382;-78
2021/07/13 15:31:52;;;;;;;24.97;22.73;;;;;;;;;;3604833;39;20416;-79
2021/07/13 15:34:21;;;;;;;24.57;22.27;;;;;;;;;;3610243;39;20417;-80
2021/07/13 15:36:47;;;;;;;26.10;23.80;;;;;;;;;;3610104;39;20829;-79
2021/07/13 15:39:13;;;;;;;23.53;21.30;;;;;;;;;;3600743;39;20405;-78
2021/07/13 15:41:39;;;;;;;23.10;20.80;;;;;;;;;;3613081;39;20798;-78
2021/07/13 15:44:05;;;;;;;22.77;20.70;;;;;;;;;;3610562;39;20394;-79
2021/07/13 15:46:32;;;;;;;23.83;21.53;;;;;;;;;;3610866;39;20422;-78
2021/07/13 15:48:59;;;;;;;24.50;22.20;;;;;;;;;;3596844;39;21781;-79
2021/07/13 15:51:25;;;;;;;22.50;20.50;;;;;;;;;;3601647;39;20406;-79
2021/07/13 15:53:52;;;;;;;21.07;19.10;;;;;;;;;;3595318;39;20429;-79
2021/07/13 15:56:19;;;;;;;23.03;20.93;;;;;;;;;;3611323;39;20410;-79
2021/07/13 15:58:45;;;;;;;20.90;18.90;;;;;;;;;;3610370;39;20512;-79
2021/07/13 16:01:11;;;;;;;28.83;21.43;;;;;;;;;;3612551;39;20425;-79
2021/07/13 16:03:37;;;;;;;23.53;20.67;;;;;;;;;;3614677;39;20410;-79
2021/07/13 16:06:04;;;;;;;25.33;22.23;;;;;;;;;;3596363;39;20506;-79